sensor_id;sensor_type;location;lat;lon;timestamp;pressure;altitude;pressure_sealevel;temperature;humidity
83100;BME280;72972;51.784;4.660;2023-10-08T00:01:33;102481.16;;;17.29;81.35
83100;BME280;72972;51.784;4.660;2023-10-08T00:04:09;102460.75;;;17.09;81.66
83100;BME280;72972;51.784;4.660;2023-10-08T00:06:39;102499.06;;;17.27;81.59
83100;BME280;72972;51.784;4.660;2023-10-08T00:09:07;102479.28;;;17.09;82.04
83100;BME280;72972;51.784;4.660;2023-10-08T00:11:37;102493.47;;;17.20;81.85
83100;BME280;72972;51.784;4.660;2023-10-08T00:14:09;102488.88;;;17.06;82.41
83100;BME280;72972;51.784;4.660;2023-10-08T00:16:41;102483.34;;;17.06;82.10
83100;BME280;72972;51.784;4.660;2023-10-08T00:19:15;102478.81;;;17.05;82.09
83100;BME280;72972;51.784;4.660;2023-10-08T00:21:46;102515.22;;;17.17;82.49
83100;BME280;72972;51.784;4.660;2023-10-08T00:24:21;102489.47;;;17.02;82.37
83100;BME280;72972;51.784;4.660;2023-10-08T00:26:55;102495.94;;;17.09;82.27
83100;BME280;72972;51.784;4.660;2023-10-08T00:29:23;102486.22;;;16.98;81.92
83100;BME280;72972;51.784;4.660;2023-10-08T00:31:53;102504.72;;;17.12;82.28
83100;BME280;72972;51.784;4.660;2023-10-08T00:34:23;102478.72;;;16.92;82.38
83100;BME280;72972;51.784;4.660;2023-10-08T00:36:53;102474.00;;;16.93;82.36
83100;BME280;72972;51.784;4.660;2023-10-08T00:39:42;102473.56;;;16.89;82.23
83100;BME280;72972;51.784;4.660;2023-10-08T00:42:08;102469.47;;;16.85;82.70
83100;BME280;72972;51.784;4.660;2023-10-08T00:45:02;102470.31;;;16.86;82.99
83100;BME280;72972;51.784;4.660;2023-10-08T00:47:35;102480.63;;;16.92;82.72
83100;BME280;72972;51.784;4.660;2023-10-08T00:50:13;102458.53;;;16.77;83.21
83100;BME280;72972;51.784;4.660;2023-10-08T00:52:53;102461.69;;;16.74;82.80
83100;BME280;72972;51.784;4.660;2023-10-08T00:55:27;102470.25;;;16.79;83.37
83100;BME280;72972;51.784;4.660;2023-10-08T00:58:02;102445.19;;;16.66;83.81
83100;BME280;72972;51.784;4.660;2023-10-08T01:00:51;102459.16;;;16.79;83.09
83100;BME280;72972;51.784;4.660;2023-10-08T01:03:30;102444.13;;;16.67;83.50
83100;BME280;72972;51.784;4.660;2023-10-08T01:06:17;102456.78;;;16.76;83.20
83100;BME280;72972;51.784;4.660;2023-10-08T01:08:55;102420.84;;;16.62;83.19
83100;BME280;72972;51.784;4.660;2023-10-08T01:11:32;102430.28;;;16.67;83.42
83100;BME280;72972;51.784;4.660;2023-10-08T01:14:11;102435.69;;;16.75;82.78
83100;BME280;72972;51.784;4.660;2023-10-08T01:16:54;102427.50;;;16.67;83.26
83100;BME280;72972;51.784;4.660;2023-10-08T01:19:33;102443.34;;;16.73;82.59
83100;BME280;72972;51.784;4.660;2023-10-08T01:22:46;102482.28;;;16.86;83.22
83100;BME280;72972;51.784;4.660;2023-10-08T01:25:20;102487.34;;;16.83;83.03
83100;BME280;72972;51.784;4.660;2023-10-08T01:27:56;102476.59;;;16.73;82.82
83100;BME280;72972;51.784;4.660;2023-10-08T01:33:42;102480.69;;;16.77;82.87
83100;BME280;72972;51.784;4.660;2023-10-08T01:36:11;102480.03;;;16.75;82.49
83100;BME280;72972;51.784;4.660;2023-10-08T01:38:44;102465.06;;;16.70;82.64
83100;BME280;72972;51.784;4.660;2023-10-08T01:41:29;102493.16;;;16.88;82.69
83100;BME280;72972;51.784;4.660;2023-10-08T01:44:01;102504.50;;;16.93;82.40
83100;BME280;72972;51.784;4.660;2023-10-08T01:46:39;102506.84;;;16.89;83.01
83100;BME280;72972;51.784;4.660;2023-10-08T01:49:11;102488.34;;;16.75;82.62
83100;BME280;72972;51.784;4.660;2023-10-08T01:51:48;102475.47;;;16.68;82.49
83100;BME280;72972;51.784;4.660;2023-10-08T01:54:23;102461.44;;;16.69;82.39
83100;BME280;72972;51.784;4.660;2023-10-08T01:57:13;102471.78;;;16.82;82.56
83100;BME280;72972;51.784;4.660;2023-10-08T01:59:47;102458.56;;;16.63;83.03
83100;BME280;72972;51.784;4.660;2023-10-08T02:02:18;102470.13;;;16.66;82.90
83100;BME280;72972;51.784;4.660;2023-10-08T02:04:46;102482.59;;;16.77;82.66
83100;BME280;72972;51.784;4.660;2023-10-08T02:07:12;102498.34;;;16.76;83.30
83100;BME280;72972;51.784;4.660;2023-10-08T02:12:21;102496.66;;;16.75;83.02
83100;BME280;72972;51.784;4.660;2023-10-08T02:17:20;102487.94;;;16.57;83.45
83100;BME280;72972;51.784;4.660;2023-10-08T02:19:48;102503.84;;;16.70;83.04
83100;BME280;72972;51.784;4.660;2023-10-08T02:22:15;102494.59;;;16.63;83.00
83100;BME280;72972;51.784;4.660;2023-10-08T02:24:41;102503.38;;;16.66;82.95
83100;BME280;72972;51.784;4.660;2023-10-08T02:27:17;102493.09;;;16.60;82.92
83100;BME280;72972;51.784;4.660;2023-10-08T02:29:56;102515.25;;;16.81;83.04
83100;BME280;72972;51.784;4.660;2023-10-08T02:32:44;102508.81;;;16.74;83.08
83100;BME280;72972;51.784;4.660;2023-10-08T02:35:42;102513.56;;;16.80;83.05
83100;BME280;72972;51.784;4.660;2023-10-08T02:38:44;102508.41;;;16.77;82.87
83100;BME280;72972;51.784;4.660;2023-10-08T02:41:18;102494.00;;;16.67;82.82
83100;BME280;72972;51.784;4.660;2023-10-08T02:46:20;102487.53;;;16.60;82.85
83100;BME280;72972;51.784;4.660;2023-10-08T02:49:01;102500.81;;;16.65;83.40
83100;BME280;72972;51.784;4.660;2023-10-08T02:51:39;102492.13;;;16.53;82.99
83100;BME280;72972;51.784;4.660;2023-10-08T02:54:11;102485.94;;;16.51;83.22
83100;BME280;72972;51.784;4.660;2023-10-08T02:57:27;102491.53;;;16.58;83.16
83100;BME280;72972;51.784;4.660;2023-10-08T02:59:58;102492.81;;;16.55;83.08
83100;BME280;72972;51.784;4.660;2023-10-08T03:05:13;102492.13;;;16.53;83.15
83100;BME280;72972;51.784;4.660;2023-10-08T03:08:06;102496.66;;;16.54;83.43
83100;BME280;72972;51.784;4.660;2023-10-08T03:11:02;102514.00;;;16.63;83.45
83100;BME280;72972;51.784;4.660;2023-10-08T03:14:04;102486.34;;;16.48;83.30
83100;BME280;72972;51.784;4.660;2023-10-08T03:17:00;102504.84;;;16.62;83.24
83100;BME280;72972;51.784;4.660;2023-10-08T03:19:39;102504.94;;;16.54;83.61
83100;BME280;72972;51.784;4.660;2023-10-08T03:22:32;102518.50;;;16.64;83.34
83100;BME280;72972;51.784;4.660;2023-10-08T03:25:12;102488.63;;;16.45;83.53
83100;BME280;72972;51.784;4.660;2023-10-08T03:27:59;102498.06;;;16.50;83.80
83100;BME280;72972;51.784;4.660;2023-10-08T03:30:36;102475.72;;;16.37;84.37
83100;BME280;72972;51.784;4.660;2023-10-08T03:33:42;102486.34;;;16.48;84.27
83100;BME280;72972;51.784;4.660;2023-10-08T03:36:42;102503.59;;;16.50;84.43
83100;BME280;72972;51.784;4.660;2023-10-08T03:39:20;102482.22;;;16.44;83.90
83100;BME280;72972;51.784;4.660;2023-10-08T03:42:02;102507.72;;;16.54;83.75
83100;BME280;72972;51.784;4.660;2023-10-08T03:45:14;102512.50;;;16.46;83.89
83100;BME280;72972;51.784;4.660;2023-10-08T03:48:12;102503.91;;;16.41;83.72
83100;BME280;72972;51.784;4.660;2023-10-08T03:50:52;102525.19;;;16.40;83.56
83100;BME280;72972;51.784;4.660;2023-10-08T03:53:52;102519.66;;;16.40;83.42
83100;BME280;72972;51.784;4.660;2023-10-08T03:59:20;102533.03;;;16.37;83.12
83100;BME280;72972;51.784;4.660;2023-10-08T04:05:14;102544.28;;;16.35;83.06
83100;BME280;72972;51.784;4.660;2023-10-08T04:08:05;102536.13;;;16.27;82.99
83100;BME280;72972;51.784;4.660;2023-10-08T04:10:54;102548.13;;;16.34;83.33
83100;BME280;72972;51.784;4.660;2023-10-08T04:13:44;102542.69;;;16.26;83.11
83100;BME280;72972;51.784;4.660;2023-10-08T04:16:20;102533.53;;;16.26;83.23
83100;BME280;72972;51.784;4.660;2023-10-08T04:19:22;102566.88;;;16.47;83.64
83100;BME280;72972;51.784;4.660;2023-10-08T04:22:22;102552.91;;;16.26;83.61
83100;BME280;72972;51.784;4.660;2023-10-08T04:25:15;102551.47;;;16.15;83.74
83100;BME280;72972;51.784;4.660;2023-10-08T04:27:46;102560.16;;;16.12;83.56
83100;BME280;72972;51.784;4.660;2023-10-08T04:30:20;102588.03;;;16.25;83.52
83100;BME280;72972;51.784;4.660;2023-10-08T04:33:07;102574.28;;;16.17;83.30
83100;BME280;72972;51.784;4.660;2023-10-08T04:36:04;102596.66;;;16.30;83.56
83100;BME280;72972;51.784;4.660;2023-10-08T04:43:46;102573.75;;;16.07;83.51
83100;BME280;72972;51.784;4.660;2023-10-08T04:46:25;102590.22;;;16.15;83.74
83100;BME280;72972;51.784;4.660;2023-10-08T04:49:32;102606.47;;;16.33;83.69
83100;BME280;72972;51.784;4.660;2023-10-08T04:52:07;102589.75;;;16.26;83.74
83100;BME280;72972;51.784;4.660;2023-10-08T04:55:11;102558.91;;;16.00;84.90
83100;BME280;72972;51.784;4.660;2023-10-08T04:58:01;102560.28;;;16.04;84.27
83100;BME280;72972;51.784;4.660;2023-10-08T05:01:08;102600.84;;;16.26;84.12
83100;BME280;72972;51.784;4.660;2023-10-08T05:07:14;102582.44;;;16.04;83.88
83100;BME280;72972;51.784;4.660;2023-10-08T05:10:04;102585.94;;;15.98;84.51
83100;BME280;72972;51.784;4.660;2023-10-08T05:12:47;102610.75;;;16.06;84.02
83100;BME280;72972;51.784;4.660;2023-10-08T05:15:38;102626.72;;;16.19;83.86
83100;BME280;72972;51.784;4.660;2023-10-08T05:18:54;102595.59;;;16.02;84.05
83100;BME280;72972;51.784;4.660;2023-10-08T05:21:44;102573.13;;;15.97;84.20
83100;BME280;72972;51.784;4.660;2023-10-08T05:29:25;102580.13;;;15.93;84.44
83100;BME280;72972;51.784;4.660;2023-10-08T05:32:27;102562.38;;;15.88;84.20
83100;BME280;72972;51.784;4.660;2023-10-08T05:35:19;102573.25;;;15.89;84.08
83100;BME280;72972;51.784;4.660;2023-10-08T05:38:33;102602.94;;;16.10;84.11
83100;BME280;72972;51.784;4.660;2023-10-08T05:41:36;102584.50;;;16.02;84.34
83100;BME280;72972;51.784;4.660;2023-10-08T05:44:59;102561.41;;;15.80;84.53
83100;BME280;72972;51.784;4.660;2023-10-08T05:50:22;102605.31;;;15.98;84.81
83100;BME280;72972;51.784;4.660;2023-10-08T06:13:49;102605.84;;;15.79;84.58
83100;BME280;72972;51.784;4.660;2023-10-08T06:16:55;102584.09;;;15.61;84.36
83100;BME280;72972;51.784;4.660;2023-10-08T06:20:14;102622.56;;;15.86;83.95
83100;BME280;72972;51.784;4.660;2023-10-08T06:23:03;102622.84;;;15.76;83.88
83100;BME280;72972;51.784;4.660;2023-10-08T06:28:28;102626.16;;;15.71;83.98
83100;BME280;72972;51.784;4.660;2023-10-08T06:34:30;102622.25;;;15.66;83.67
83100;BME280;72972;51.784;4.660;2023-10-08T06:41:05;102659.47;;;15.78;83.90
83100;BME280;72972;51.784;4.660;2023-10-08T06:47:36;102636.16;;;15.95;83.32
83100;BME280;72972;51.784;4.660;2023-10-08T06:50:24;102634.34;;;16.17;82.83
83100;BME280;72972;51.784;4.660;2023-10-08T06:53:37;102669.53;;;16.60;81.88
83100;BME280;72972;51.784;4.660;2023-10-08T06:56:16;102648.75;;;16.41;82.01
83100;BME280;72972;51.784;4.660;2023-10-08T06:59:14;102680.97;;;16.42;82.70
83100;BME280;72972;51.784;4.660;2023-10-08T07:02:15;102630.81;;;16.08;84.24
83100;BME280;72972;51.784;4.660;2023-10-08T07:05:17;102669.03;;;16.27;84.58
83100;BME280;72972;51.784;4.660;2023-10-08T07:08:40;102657.91;;;16.13;84.80
83100;BME280;72972;51.784;4.660;2023-10-08T07:11:31;102679.63;;;16.24;85.01
83100;BME280;72972;51.784;4.660;2023-10-08T07:14:13;102671.50;;;16.22;85.15
83100;BME280;72972;51.784;4.660;2023-10-08T07:19:22;102650.59;;;16.20;85.22
83100;BME280;72972;51.784;4.660;2023-10-08T07:22:05;102677.41;;;16.34;85.37
83100;BME280;72972;51.784;4.660;2023-10-08T07:25:15;102655.81;;;16.29;86.31
83100;BME280;72972;51.784;4.660;2023-10-08T07:28:02;102676.69;;;16.54;86.51
83100;BME280;72972;51.784;4.660;2023-10-08T07:31:31;102685.00;;;16.54;87.32
83100;BME280;72972;51.784;4.660;2023-10-08T07:34:29;102678.13;;;16.50;87.42
83100;BME280;72972;51.784;4.660;2023-10-08T07:37:22;102664.34;;;16.42;87.38
83100;BME280;72972;51.784;4.660;2023-10-08T07:40:07;102702.31;;;16.71;87.04
83100;BME280;72972;51.784;4.660;2023-10-08T07:42:49;102676.31;;;16.57;86.91
83100;BME280;72972;51.784;4.660;2023-10-08T07:45:41;102663.81;;;16.47;86.83
83100;BME280;72972;51.784;4.660;2023-10-08T07:52:19;102677.84;;;16.45;87.17
83100;BME280;72972;51.784;4.660;2023-10-08T07:55:28;102691.50;;;16.47;86.69
83100;BME280;72972;51.784;4.660;2023-10-08T07:58:46;102694.47;;;16.45;86.26
83100;BME280;72972;51.784;4.660;2023-10-08T08:01:20;102703.53;;;16.54;86.11
83100;BME280;72972;51.784;4.660;2023-10-08T08:03:58;102738.09;;;16.58;86.46
83100;BME280;72972;51.784;4.660;2023-10-08T08:06:27;102723.09;;;16.38;87.14
83100;BME280;72972;51.784;4.660;2023-10-08T08:09:16;102728.81;;;16.36;86.75
83100;BME280;72972;51.784;4.660;2023-10-08T08:12:20;102739.97;;;16.28;87.54
83100;BME280;72972;51.784;4.660;2023-10-08T08:15:04;102722.66;;;16.26;86.84
83100;BME280;72972;51.784;4.660;2023-10-08T08:18:04;102759.88;;;16.46;86.48
83100;BME280;72972;51.784;4.660;2023-10-08T08:20:50;102742.06;;;16.26;86.15
83100;BME280;72972;51.784;4.660;2023-10-08T08:23:58;102773.41;;;16.41;86.34
83100;BME280;72972;51.784;4.660;2023-10-08T08:27:11;102749.41;;;16.19;86.03
83100;BME280;72972;51.784;4.660;2023-10-08T08:30:07;102755.63;;;16.21;86.32
83100;BME280;72972;51.784;4.660;2023-10-08T08:32:54;102769.00;;;16.32;86.03
83100;BME280;72972;51.784;4.660;2023-10-08T08:36:41;102733.75;;;16.26;85.56
83100;BME280;72972;51.784;4.660;2023-10-08T08:38:59;102751.59;;;16.24;85.58
83100;BME280;72972;51.784;4.660;2023-10-08T08:42:11;102755.44;;;16.23;85.85
83100;BME280;72972;51.784;4.660;2023-10-08T08:45:31;102753.44;;;16.31;85.06
83100;BME280;72972;51.784;4.660;2023-10-08T08:48:57;102730.13;;;16.26;85.34
83100;BME280;72972;51.784;4.660;2023-10-08T08:51:50;102732.03;;;16.25;85.18
83100;BME280;72972;51.784;4.660;2023-10-08T08:54:24;102755.63;;;16.36;85.04
83100;BME280;72972;51.784;4.660;2023-10-08T08:59:58;102764.13;;;16.34;85.13
83100;BME280;72972;51.784;4.660;2023-10-08T09:02:41;102805.47;;;16.44;85.16
83100;BME280;72972;51.784;4.660;2023-10-08T09:05:28;102763.63;;;16.16;86.23
83100;BME280;72972;51.784;4.660;2023-10-08T09:08:13;102765.63;;;16.22;85.03
83100;BME280;72972;51.784;4.660;2023-10-08T09:11:02;102796.00;;;16.53;84.74
83100;BME280;72972;51.784;4.660;2023-10-08T09:13:39;102757.53;;;16.21;85.25
83100;BME280;72972;51.784;4.660;2023-10-08T09:16:34;102800.06;;;16.42;85.20
83100;BME280;72972;51.784;4.660;2023-10-08T09:19:14;102772.75;;;16.39;84.45
83100;BME280;72972;51.784;4.660;2023-10-08T09:24:40;102780.75;;;16.34;85.26
83100;BME280;72972;51.784;4.660;2023-10-08T09:27:17;102757.91;;;16.18;85.06
83100;BME280;72972;51.784;4.660;2023-10-08T09:29:59;102758.28;;;16.29;85.54
83100;BME280;72972;51.784;4.660;2023-10-08T09:33:16;102756.41;;;16.30;85.35
83100;BME280;72972;51.784;4.660;2023-10-08T09:35:49;102776.31;;;16.48;85.46
83100;BME280;72972;51.784;4.660;2023-10-08T09:39:05;102777.28;;;16.55;85.27
83100;BME280;72972;51.784;4.660;2023-10-08T09:42:38;102738.53;;;16.32;85.45
83100;BME280;72972;51.784;4.660;2023-10-08T09:48:35;102743.47;;;16.45;84.89
83100;BME280;72972;51.784;4.660;2023-10-08T09:51:20;102737.41;;;16.41;84.72
83100;BME280;72972;51.784;4.660;2023-10-08T10:01:07;102784.38;;;16.57;83.33
83100;BME280;72972;51.784;4.660;2023-10-08T10:04:23;102744.53;;;16.21;83.47
83100;BME280;72972;51.784;4.660;2023-10-08T10:07:36;102751.41;;;16.25;83.71
83100;BME280;72972;51.784;4.660;2023-10-08T10:10:32;102793.63;;;16.50;83.77
83100;BME280;72972;51.784;4.660;2023-10-08T10:13:27;102794.47;;;16.50;83.87
83100;BME280;72972;51.784;4.660;2023-10-08T10:16:47;102745.69;;;16.27;83.66
83100;BME280;72972;51.784;4.660;2023-10-08T10:19:47;102785.50;;;16.63;83.27
83100;BME280;72972;51.784;4.660;2023-10-08T10:25:36;102770.72;;;16.56;83.98
83100;BME280;72972;51.784;4.660;2023-10-08T10:31:21;102741.66;;;16.66;83.61
83100;BME280;72972;51.784;4.660;2023-10-08T10:34:01;102755.44;;;16.74;82.97
83100;BME280;72972;51.784;4.660;2023-10-08T10:36:43;102762.41;;;16.85;82.95
83100;BME280;72972;51.784;4.660;2023-10-08T10:42:38;102784.75;;;16.98;81.62
83100;BME280;72972;51.784;4.660;2023-10-08T10:48:08;102794.03;;;16.90;82.42
83100;BME280;72972;51.784;4.660;2023-10-08T10:51:19;102765.28;;;16.77;82.74
83100;BME280;72972;51.784;4.660;2023-10-08T10:54:08;102765.94;;;16.64;82.86
83100;BME280;72972;51.784;4.660;2023-10-08T10:57:02;102791.16;;;16.69;82.98
83100;BME280;72972;51.784;4.660;2023-10-08T10:59:45;102770.22;;;16.52;83.37
83100;BME280;72972;51.784;4.660;2023-10-08T11:02:36;102749.50;;;16.48;82.83
83100;BME280;72972;51.784;4.660;2023-10-08T11:05:20;102765.53;;;16.67;82.38
83100;BME280;72972;51.784;4.660;2023-10-08T11:08:15;102754.06;;;16.70;82.42
83100;BME280;72972;51.784;4.660;2023-10-08T11:10:56;102776.34;;;16.77;82.29
83100;BME280;72972;51.784;4.660;2023-10-08T11:16:12;102759.91;;;16.90;81.49
83100;BME280;72972;51.784;4.660;2023-10-08T11:18:55;102753.78;;;16.94;80.66
83100;BME280;72972;51.784;4.660;2023-10-08T11:22:19;102754.16;;;16.91;81.08
83100;BME280;72972;51.784;4.660;2023-10-08T11:25:31;102727.41;;;16.84;80.84
83100;BME280;72972;51.784;4.660;2023-10-08T11:28:28;102727.41;;;16.84;80.98
83100;BME280;72972;51.784;4.660;2023-10-08T11:31:10;102741.00;;;17.08;80.45
83100;BME280;72972;51.784;4.660;2023-10-08T11:34:19;102741.38;;;17.05;80.39
83100;BME280;72972;51.784;4.660;2023-10-08T11:37:29;102720.53;;;16.94;80.53
83100;BME280;72972;51.784;4.660;2023-10-08T11:40:26;102724.34;;;16.93;80.52
83100;BME280;72972;51.784;4.660;2023-10-08T11:43:20;102760.94;;;17.18;80.87
83100;BME280;72972;51.784;4.660;2023-10-08T11:46:10;102731.91;;;16.99;80.52
83100;BME280;72972;51.784;4.660;2023-10-08T11:51:16;102715.09;;;16.86;80.76
83100;BME280;72972;51.784;4.660;2023-10-08T11:54:16;102747.50;;;17.00;80.75
83100;BME280;72972;51.784;4.660;2023-10-08T12:02:36;102717.88;;;17.36;80.11
83100;BME280;72972;51.784;4.660;2023-10-08T12:05:36;102756.09;;;17.56;79.22
83100;BME280;72972;51.784;4.660;2023-10-08T12:08:36;102719.38;;;17.39;78.54
83100;BME280;72972;51.784;4.660;2023-10-08T12:20:31;102694.66;;;17.59;78.37
83100;BME280;72972;51.784;4.660;2023-10-08T12:23:22;102689.47;;;17.49;78.48
83100;BME280;72972;51.784;4.660;2023-10-08T12:25:55;102694.41;;;17.54;79.11
83100;BME280;72972;51.784;4.660;2023-10-08T12:28:29;102670.06;;;17.56;78.34
83100;BME280;72972;51.784;4.660;2023-10-08T12:31:12;102674.19;;;17.60;79.14
83100;BME280;72972;51.784;4.660;2023-10-08T12:33:42;102673.59;;;17.64;78.45
83100;BME280;72972;51.784;4.660;2023-10-08T12:40:23;102674.78;;;17.55;78.51
83100;BME280;72972;51.784;4.660;2023-10-08T12:46:13;102666.09;;;17.65;78.60
83100;BME280;72972;51.784;4.660;2023-10-08T12:49:06;102658.44;;;17.67;78.67
83100;BME280;72972;51.784;4.660;2023-10-08T12:51:55;102667.56;;;17.82;78.36
83100;BME280;72972;51.784;4.660;2023-10-08T12:54:58;102651.66;;;17.97;77.60
83100;BME280;72972;51.784;4.660;2023-10-08T13:03:30;102675.00;;;18.30;77.05
83100;BME280;72972;51.784;4.660;2023-10-08T13:06:33;102663.59;;;18.46;76.81
83100;BME280;72972;51.784;4.660;2023-10-08T13:09:41;102645.63;;;18.42;76.33
83100;BME280;72972;51.784;4.660;2023-10-08T13:15:13;102678.16;;;18.88;75.15
83100;BME280;72972;51.784;4.660;2023-10-08T13:21:27;102654.88;;;18.96;74.43
83100;BME280;72972;51.784;4.660;2023-10-08T13:24:14;102621.19;;;18.65;75.57
83100;BME280;72972;51.784;4.660;2023-10-08T13:27:14;102617.66;;;18.50;75.52
83100;BME280;72972;51.784;4.660;2023-10-08T13:30:25;102649.19;;;18.70;75.93
83100;BME280;72972;51.784;4.660;2023-10-08T13:33:37;102640.03;;;18.76;75.95
83100;BME280;72972;51.784;4.660;2023-10-08T13:36:35;102596.16;;;18.65;75.95
83100;BME280;72972;51.784;4.660;2023-10-08T13:39:43;102603.53;;;18.51;75.98
83100;BME280;72972;51.784;4.660;2023-10-08T13:42:11;102613.03;;;18.70;75.87
83100;BME280;72972;51.784;4.660;2023-10-08T13:47:40;102623.97;;;18.71;76.53
83100;BME280;72972;51.784;4.660;2023-10-08T13:50:19;102614.13;;;18.69;76.56
83100;BME280;72972;51.784;4.660;2023-10-08T13:53:20;102604.63;;;18.50;76.83
83100;BME280;72972;51.784;4.660;2023-10-08T13:59:01;102621.81;;;18.67;76.76
83100;BME280;72972;51.784;4.660;2023-10-08T14:04:20;102607.50;;;18.70;76.07
83100;BME280;72972;51.784;4.660;2023-10-08T14:10:02;102585.47;;;18.68;75.68
83100;BME280;72972;51.784;4.660;2023-10-08T14:12:52;102595.53;;;18.76;75.74
83100;BME280;72972;51.784;4.660;2023-10-08T14:15:55;102588.69;;;18.72;76.35
83100;BME280;72972;51.784;4.660;2023-10-08T14:18:39;102589.59;;;18.85;75.88
83100;BME280;72972;51.784;4.660;2023-10-08T14:21:54;102603.72;;;18.90;75.47
83100;BME280;72972;51.784;4.660;2023-10-08T14:25:09;102578.22;;;18.80;75.52
83100;BME280;72972;51.784;4.660;2023-10-08T14:27:50;102601.59;;;18.99;76.09
83100;BME280;72972;51.784;4.660;2023-10-08T14:30:55;102582.56;;;18.96;75.19
83100;BME280;72972;51.784;4.660;2023-10-08T14:33:34;102604.72;;;19.30;75.02
83100;BME280;72972;51.784;4.660;2023-10-08T14:36:14;102585.19;;;19.23;74.50
83100;BME280;72972;51.784;4.660;2023-10-08T14:39:33;102592.06;;;19.28;74.44
83100;BME280;72972;51.784;4.660;2023-10-08T14:42:29;102561.03;;;19.31;73.99
83100;BME280;72972;51.784;4.660;2023-10-08T14:45:39;102562.50;;;19.20;74.50
83100;BME280;72972;51.784;4.660;2023-10-08T14:48:21;102598.09;;;19.31;75.13
83100;BME280;72972;51.784;4.660;2023-10-08T14:51:04;102556.94;;;19.13;74.68
83100;BME280;72972;51.784;4.660;2023-10-08T14:53:50;102543.03;;;19.13;74.90
83100;BME280;72972;51.784;4.660;2023-10-08T14:56:35;102555.63;;;19.09;75.21
83100;BME280;72972;51.784;4.660;2023-10-08T14:59:09;102548.16;;;18.97;75.84
83100;BME280;72972;51.784;4.660;2023-10-08T15:04:42;102540.19;;;18.94;75.95
83100;BME280;72972;51.784;4.660;2023-10-08T15:09:36;102548.13;;;18.90;76.32
83100;BME280;72972;51.784;4.660;2023-10-08T15:12:18;102565.63;;;18.91;76.90
83100;BME280;72972;51.784;4.660;2023-10-08T15:15:03;102557.31;;;18.84;76.62
83100;BME280;72972;51.784;4.660;2023-10-08T15:17:45;102529.03;;;18.68;76.80
83100;BME280;72972;51.784;4.660;2023-10-08T15:20:19;102579.13;;;18.87;76.93
83100;BME280;72972;51.784;4.660;2023-10-08T15:23:45;102572.50;;;18.88;77.43
83100;BME280;72972;51.784;4.660;2023-10-08T15:26:11;102541.19;;;18.67;77.05
83100;BME280;72972;51.784;4.660;2023-10-08T15:29:01;102542.50;;;18.71;77.02
83100;BME280;72972;51.784;4.660;2023-10-08T15:31:44;102545.63;;;18.55;77.65
83100;BME280;72972;51.784;4.660;2023-10-08T15:34:32;102549.31;;;18.62;78.05
83100;BME280;72972;51.784;4.660;2023-10-08T15:37:21;102542.19;;;18.53;78.42
83100;BME280;72972;51.784;4.660;2023-10-08T15:43:32;102532.75;;;18.41;78.69
83100;BME280;72972;51.784;4.660;2023-10-08T15:46:25;102548.00;;;18.58;78.25
83100;BME280;72972;51.784;4.660;2023-10-08T15:52:54;102543.25;;;18.45;78.99
83100;BME280;72972;51.784;4.660;2023-10-08T15:55:26;102516.28;;;18.39;78.75
83100;BME280;72972;51.784;4.660;2023-10-08T15:57:58;102552.28;;;18.54;79.19
83100;BME280;72972;51.784;4.660;2023-10-08T16:03:26;102527.78;;;18.30;79.35
83100;BME280;72972;51.784;4.660;2023-10-08T16:06:04;102511.94;;;18.24;79.21
83100;BME280;72972;51.784;4.660;2023-10-08T16:14:04;102514.66;;;18.17;79.63
83100;BME280;72972;51.784;4.660;2023-10-08T16:16:51;102534.16;;;18.24;79.91
83100;BME280;72972;51.784;4.660;2023-10-08T16:22:59;102529.19;;;18.13;79.92
83100;BME280;72972;51.784;4.660;2023-10-08T16:25:33;102543.94;;;18.20;80.12
83100;BME280;72972;51.784;4.660;2023-10-08T16:28:06;102525.88;;;17.96;80.59
83100;BME280;72972;51.784;4.660;2023-10-08T16:33:23;102534.63;;;18.00;80.87
83100;BME280;72972;51.784;4.660;2023-10-08T16:36:04;102519.53;;;18.09;80.45
83100;BME280;72972;51.784;4.660;2023-10-08T16:39:05;102541.81;;;18.22;79.97
83100;BME280;72972;51.784;4.660;2023-10-08T16:44:20;102523.72;;;17.92;80.94
83100;BME280;72972;51.784;4.660;2023-10-08T16:46:55;102516.41;;;17.84;81.07
83100;BME280;72972;51.784;4.660;2023-10-08T16:49:31;102538.03;;;17.95;81.06
83100;BME280;72972;51.784;4.660;2023-10-08T16:52:05;102508.28;;;17.83;81.08
83100;BME280;72972;51.784;4.660;2023-10-08T16:57:37;102502.22;;;17.73;80.96
83100;BME280;72972;51.784;4.660;2023-10-08T17:00:16;102534.38;;;17.88;81.01
83100;BME280;72972;51.784;4.660;2023-10-08T17:06:09;102492.97;;;17.59;81.08
83100;BME280;72972;51.784;4.660;2023-10-08T17:14:59;102514.88;;;17.48;81.86
83100;BME280;72972;51.784;4.660;2023-10-08T17:17:39;102514.41;;;17.44;82.00
83100;BME280;72972;51.784;4.660;2023-10-08T17:20:23;102491.84;;;17.32;82.07
83100;BME280;72972;51.784;4.660;2023-10-08T17:25:27;102493.94;;;17.24;82.17
83100;BME280;72972;51.784;4.660;2023-10-08T17:27:58;102528.84;;;17.39;82.15
83100;BME280;72972;51.784;4.660;2023-10-08T17:30:30;102520.66;;;17.31;82.53
83100;BME280;72972;51.784;4.660;2023-10-08T17:33:31;102486.34;;;17.11;82.33
83100;BME280;72972;51.784;4.660;2023-10-08T17:35:59;102489.84;;;17.20;82.12
83100;BME280;72972;51.784;4.660;2023-10-08T17:38:29;102478.19;;;17.03;82.38
83100;BME280;72972;51.784;4.660;2023-10-08T17:41:21;102473.28;;;17.05;81.98
83100;BME280;72972;51.784;4.660;2023-10-08T17:43:53;102496.22;;;17.20;82.42
83100;BME280;72972;51.784;4.660;2023-10-08T17:46:31;102462.31;;;16.97;82.46
83100;BME280;72972;51.784;4.660;2023-10-08T17:49:05;102463.66;;;17.01;82.67
83100;BME280;72972;51.784;4.660;2023-10-08T17:51:44;102455.00;;;16.90;83.20
83100;BME280;72972;51.784;4.660;2023-10-08T17:57:14;102438.78;;;16.87;82.79